Tillabery, Niger
Current Conditions -  °F | °C
As of 2:00 AM on Sunday 23 Nov 2014 (Local Time) from DRRN Reporting Station
Clear Clear  
Wind Chill: 75°   Ceiling: Unl
Heat Index: 75°   Visibility: 6mi
Dew Point: 34°   Wind: 6mph
Humidity: 22%   Direction: 20°NNE
Pressure: 29.91"   Gusts: NA
Location:  14.21°N, 1.45°E
Report Text: DRRN 230100Z 02005KT CAVOK 24/01 Q1013 NOSIG
Loading
Personal Weather Stations






























Interactive Weather Map New forecast layout! Learn more

10-Day Weather Forecast

Advertisements
Track Severe Weather on mobile